Terminal Aerodrome Forecast
Issued by NWS Tampa Bay Area, FL

Home | Current Version | Previous Version | Text Only | Print | Product List | Glossary On
Versions: 1 2 3 4 5 6 7 8 9 10 11 12 13 14 15 16 17
000
FTUS42 KTBW 261125
TAFSRQ
TAF
KSRQ 261125Z 2612/2712 22013KT P6SM SCT015 SCT250
     FM261400 23013G20KT P6SM SCT025 SCT100 SCT250
     FM261800 25015G23KT P6SM SCT030 SCT100 BKN250
     FM262300 26013KT P6SM FEW030 SCT100 BKN250=

USA.gov is the U.S. government's official web portal to all federal, state and local government web resources and services.